KMYJ

Mexico Memorial Airport

Mexico, Missouri, USA
METAR KMYJ 120135Z AUTO 17008KT 10SM CLR 03/M01 A2997 RMK AO2
Observed Flight Rules
Dec-12 @ 01:35 UTC (11 minutes ago) Visual Flight Rules
Wind Visibility Clouds
170° at 8 knots 10 miles
  • Clear skies
Temperatures Readings
Current 3°C / 37°F
Dewpoint -1°C / 30°F
Humidity 75%
Altimeter 29.97" Hg
Pressure 1015 hPa
Elevation 251
METAR KMYJ 120135Z AUTO 17008KT 10SM CLR 03/M01 A2997 RMK AO2
Observed Flight Rules
Dec-12 @ 01:35 UTC
(11 minutes ago)
VFR
Wind Visibility
170° at 8 knots 10 miles
Clouds
  • Clear skies
Temperature Dewpoint
3°C / 37°F -1°C / 30°F
Humidity Altimeter Pressure
75% 29.97" Hg 1015 hPa